sensor_id;sensor_type;location;lat;lon;timestamp;pressure;altitude;pressure_sealevel;temperature;humidity
39223;BME280;24936;46.328;11.026;2023-01-29T00:02:10;94857.06;;;-5.65;75.54
39223;BME280;24936;46.328;11.026;2023-01-29T00:04:35;94838.91;;;-5.56;74.41
39223;BME280;24936;46.328;11.026;2023-01-29T00:07:01;94844.50;;;-5.38;73.96
39223;BME280;24936;46.328;11.026;2023-01-29T00:09:27;94849.69;;;-5.41;73.80
39223;BME280;24936;46.328;11.026;2023-01-29T00:11:53;94846.22;;;-5.78;75.58
39223;BME280;24936;46.328;11.026;2023-01-29T00:14:18;94851.13;;;-6.06;76.73
39223;BME280;24936;46.328;11.026;2023-01-29T00:16:44;94860.09;;;-6.29;78.58
39223;BME280;24936;46.328;11.026;2023-01-29T00:19:09;94855.09;;;-6.37;79.32
39223;BME280;24936;46.328;11.026;2023-01-29T00:21:34;94856.09;;;-6.44;79.54
39223;BME280;24936;46.328;11.026;2023-01-29T00:24:00;94867.41;;;-6.56;80.17
39223;BME280;24936;46.328;11.026;2023-01-29T00:26:26;94863.97;;;-6.55;79.83
39223;BME280;24936;46.328;11.026;2023-01-29T00:28:52;94862.97;;;-6.48;79.27
39223;BME280;24936;46.328;11.026;2023-01-29T00:31:20;94860.06;;;-6.27;78.89
39223;BME280;24936;46.328;11.026;2023-01-29T00:33:47;94860.13;;;-6.31;79.13
39223;BME280;24936;46.328;11.026;2023-01-29T00:36:15;94861.91;;;-6.36;79.89
39223;BME280;24936;46.328;11.026;2023-01-29T00:38:41;94862.06;;;-6.43;79.71
39223;BME280;24936;46.328;11.026;2023-01-29T00:41:12;94864.66;;;-6.47;80.01
39223;BME280;24936;46.328;11.026;2023-01-29T00:43:58;94864.38;;;-6.31;79.04
39223;BME280;24936;46.328;11.026;2023-01-29T00:46:42;94860.38;;;-6.45;79.44
39223;BME280;24936;46.328;11.026;2023-01-29T00:49:08;94857.94;;;-6.51;80.02
39223;BME280;24936;46.328;11.026;2023-01-29T00:51:35;94863.19;;;-6.58;80.70
39223;BME280;24936;46.328;11.026;2023-01-29T00:54:00;94863.28;;;-6.65;80.56
39223;BME280;24936;46.328;11.026;2023-01-29T00:56:27;94861.00;;;-6.33;79.27
39223;BME280;24936;46.328;11.026;2023-01-29T00:58:53;94868.53;;;-6.24;78.08
39223;BME280;24936;46.328;11.026;2023-01-29T01:01:22;94861.72;;;-6.26;78.39
39223;BME280;24936;46.328;11.026;2023-01-29T01:04:08;94865.41;;;-6.38;78.68
39223;BME280;24936;46.328;11.026;2023-01-29T01:06:36;94860.34;;;-6.43;78.94
39223;BME280;24936;46.328;11.026;2023-01-29T01:09:02;94863.94;;;-6.52;78.95
39223;BME280;24936;46.328;11.026;2023-01-29T01:11:46;94867.41;;;-6.56;79.41
39223;BME280;24936;46.328;11.026;2023-01-29T01:14:12;94869.78;;;-6.45;78.90
39223;BME280;24936;46.328;11.026;2023-01-29T01:16:37;94870.16;;;-6.65;79.66
39223;BME280;24936;46.328;11.026;2023-01-29T01:19:03;94874.63;;;-6.77;80.03
39223;BME280;24936;46.328;11.026;2023-01-29T01:21:29;94875.81;;;-6.49;79.47
39223;BME280;24936;46.328;11.026;2023-01-29T01:23:54;94880.75;;;-6.38;78.57
39223;BME280;24936;46.328;11.026;2023-01-29T01:26:20;94879.34;;;-6.55;78.80
39223;BME280;24936;46.328;11.026;2023-01-29T01:28:45;94879.44;;;-6.61;79.38
39223;BME280;24936;46.328;11.026;2023-01-29T01:31:12;94884.47;;;-6.55;79.51
39223;BME280;24936;46.328;11.026;2023-01-29T01:33:37;94885.38;;;-6.59;79.52
39223;BME280;24936;46.328;11.026;2023-01-29T01:36:04;94880.19;;;-6.54;79.20
39223;BME280;24936;46.328;11.026;2023-01-29T01:38:33;94894.25;;;-6.30;78.05
39223;BME280;24936;46.328;11.026;2023-01-29T01:40:59;94881.50;;;-6.82;79.38
39223;BME280;24936;46.328;11.026;2023-01-29T01:43:24;94879.28;;;-7.02;81.18
39223;BME280;24936;46.328;11.026;2023-01-29T01:45:49;94871.84;;;-7.17;81.58
39223;BME280;24936;46.328;11.026;2023-01-29T01:48:23;94869.38;;;-7.22;82.28
39223;BME280;24936;46.328;11.026;2023-01-29T01:50:59;94870.94;;;-7.15;82.46
39223;BME280;24936;46.328;11.026;2023-01-29T01:53:37;94871.97;;;-7.25;82.39
39223;BME280;24936;46.328;11.026;2023-01-29T01:56:07;94875.34;;;-7.23;82.85
39223;BME280;24936;46.328;11.026;2023-01-29T01:58:37;94874.50;;;-7.24;82.29
39223;BME280;24936;46.328;11.026;2023-01-29T02:01:06;94878.84;;;-7.30;82.15
39223;BME280;24936;46.328;11.026;2023-01-29T02:03:49;94879.56;;;-7.20;82.30
39223;BME280;24936;46.328;11.026;2023-01-29T02:06:38;94877.88;;;-7.20;82.20
39223;BME280;24936;46.328;11.026;2023-01-29T02:09:28;94882.41;;;-6.84;81.15
39223;BME280;24936;46.328;11.026;2023-01-29T02:12:03;94884.41;;;-7.02;80.83
39223;BME280;24936;46.328;11.026;2023-01-29T02:14:29;94886.47;;;-6.72;80.15
39223;BME280;24936;46.328;11.026;2023-01-29T02:16:58;94892.06;;;-6.50;78.75
39223;BME280;24936;46.328;11.026;2023-01-29T02:22:50;94886.47;;;-6.72;79.08
39223;BME280;24936;46.328;11.026;2023-01-29T02:30:39;94896.66;;;-6.69;78.81
39223;BME280;24936;46.328;11.026;2023-01-29T02:33:29;94903.84;;;-6.90;79.38
39223;BME280;24936;46.328;11.026;2023-01-29T02:39:00;94905.66;;;-6.98;80.00
39223;BME280;24936;46.328;11.026;2023-01-29T02:44:46;94914.72;;;-6.77;78.75
39223;BME280;24936;46.328;11.026;2023-01-29T02:47:21;94918.97;;;-6.76;78.78
39223;BME280;24936;46.328;11.026;2023-01-29T02:50:06;94911.28;;;-6.76;78.80
39223;BME280;24936;46.328;11.026;2023-01-29T02:55:28;94923.50;;;-6.92;79.39
39223;BME280;24936;46.328;11.026;2023-01-29T02:58:01;94914.91;;;-6.89;78.96
39223;BME280;24936;46.328;11.026;2023-01-29T03:00:33;94913.34;;;-6.97;79.61
39223;BME280;24936;46.328;11.026;2023-01-29T03:03:25;94922.13;;;-7.13;80.02
39223;BME280;24936;46.328;11.026;2023-01-29T03:06:03;94918.19;;;-7.38;81.55
39223;BME280;24936;46.328;11.026;2023-01-29T03:08:41;94921.66;;;-7.40;81.99
39223;BME280;24936;46.328;11.026;2023-01-29T03:11:11;94914.19;;;-6.96;79.91
39223;BME280;24936;46.328;11.026;2023-01-29T03:13:46;94919.53;;;-6.58;78.53
39223;BME280;24936;46.328;11.026;2023-01-29T03:19:06;94922.13;;;-7.13;79.47
39223;BME280;24936;46.328;11.026;2023-01-29T03:21:43;94923.38;;;-7.42;80.83
39223;BME280;24936;46.328;11.026;2023-01-29T03:24:28;94932.09;;;-7.56;81.30
39223;BME280;24936;46.328;11.026;2023-01-29T03:27:13;94938.03;;;-7.55;81.14
39223;BME280;24936;46.328;11.026;2023-01-29T03:29:59;94936.00;;;-7.30;80.47
39223;BME280;24936;46.328;11.026;2023-01-29T03:32:45;94932.03;;;-7.51;81.05
39223;BME280;24936;46.328;11.026;2023-01-29T03:35:13;94940.78;;;-7.71;81.76
39223;BME280;24936;46.328;11.026;2023-01-29T03:37:46;94940.56;;;-7.52;81.36
39223;BME280;24936;46.328;11.026;2023-01-29T03:40:13;94947.19;;;-7.39;81.27
39223;BME280;24936;46.328;11.026;2023-01-29T03:46:02;94948.44;;;-7.68;81.77
39223;BME280;24936;46.328;11.026;2023-01-29T03:57:30;94943.50;;;-7.83;82.94
39223;BME280;24936;46.328;11.026;2023-01-29T04:00:14;94937.47;;;-7.76;82.59
39223;BME280;24936;46.328;11.026;2023-01-29T04:02:56;94946.03;;;-7.80;82.70
39223;BME280;24936;46.328;11.026;2023-01-29T04:05:27;94947.72;;;-7.79;82.82
39223;BME280;24936;46.328;11.026;2023-01-29T04:08:01;94950.25;;;-7.77;82.58
39223;BME280;24936;46.328;11.026;2023-01-29T04:10:30;94951.19;;;-7.85;82.87
39223;BME280;24936;46.328;11.026;2023-01-29T04:13:04;94947.81;;;-7.87;82.74
39223;BME280;24936;46.328;11.026;2023-01-29T04:15:33;94947.09;;;-7.98;82.99
39223;BME280;24936;46.328;11.026;2023-01-29T04:18:00;94954.84;;;-8.06;83.52
39223;BME280;24936;46.328;11.026;2023-01-29T04:20:26;94935.34;;;-8.15;84.09
39223;BME280;24936;46.328;11.026;2023-01-29T04:22:53;94946.06;;;-7.83;83.27
39223;BME280;24936;46.328;11.026;2023-01-29T04:25:23;94944.88;;;-7.56;81.97
39223;BME280;24936;46.328;11.026;2023-01-29T04:28:04;94935.47;;;-7.55;81.01
39223;BME280;24936;46.328;11.026;2023-01-29T04:35:53;94945.13;;;-7.77;81.91
39223;BME280;24936;46.328;11.026;2023-01-29T04:38:37;94946.97;;;-7.87;82.29
39223;BME280;24936;46.328;11.026;2023-01-29T04:41:36;94954.53;;;-7.79;81.98
39223;BME280;24936;46.328;11.026;2023-01-29T04:44:27;94944.25;;;-7.75;81.78
39223;BME280;24936;46.328;11.026;2023-01-29T04:49:52;94951.69;;;-7.55;80.61
39223;BME280;24936;46.328;11.026;2023-01-29T04:57:27;94945.81;;;-7.61;80.91
39223;BME280;24936;46.328;11.026;2023-01-29T05:00:06;94933.13;;;-7.71;81.26
39223;BME280;24936;46.328;11.026;2023-01-29T05:02:36;94941.50;;;-7.58;81.21
39223;BME280;24936;46.328;11.026;2023-01-29T05:05:04;94933.53;;;-7.38;80.23
39223;BME280;24936;46.328;11.026;2023-01-29T05:07:31;94940.00;;;-7.77;81.34
39223;BME280;24936;46.328;11.026;2023-01-29T05:09:59;94950.28;;;-7.79;81.80
39223;BME280;24936;46.328;11.026;2023-01-29T05:12:26;94947.63;;;-7.71;81.25
39223;BME280;24936;46.328;11.026;2023-01-29T05:14:53;94951.00;;;-7.71;81.19
39223;BME280;24936;46.328;11.026;2023-01-29T05:17:22;94937.47;;;-7.76;81.29
39223;BME280;24936;46.328;11.026;2023-01-29T05:19:47;94946.72;;;-7.67;81.05
39223;BME280;24936;46.328;11.026;2023-01-29T05:22:16;94940.78;;;-7.71;81.31
39223;BME280;24936;46.328;11.026;2023-01-29T05:24:43;94945.25;;;-7.87;81.57
39223;BME280;24936;46.328;11.026;2023-01-29T05:27:28;94942.91;;;-8.04;82.34
39223;BME280;24936;46.328;11.026;2023-01-29T05:30:14;94951.41;;;-8.05;82.68
39223;BME280;24936;46.328;11.026;2023-01-29T05:32:40;94942.41;;;-7.65;81.16
39223;BME280;24936;46.328;11.026;2023-01-29T05:35:05;94952.13;;;-7.90;82.06
39223;BME280;24936;46.328;11.026;2023-01-29T05:37:31;94951.47;;;-8.11;81.98
39223;BME280;24936;46.328;11.026;2023-01-29T05:39:56;94957.13;;;-7.82;81.74
39223;BME280;24936;46.328;11.026;2023-01-29T05:42:22;94948.94;;;-7.41;80.17
39223;BME280;24936;46.328;11.026;2023-01-29T05:44:48;94946.06;;;-7.17;78.51
39223;BME280;24936;46.328;11.026;2023-01-29T05:47:17;94948.72;;;-7.25;78.53
39223;BME280;24936;46.328;11.026;2023-01-29T05:49:43;94954.44;;;-7.72;80.39
39223;BME280;24936;46.328;11.026;2023-01-29T05:52:08;94951.88;;;-7.70;80.35
39223;BME280;24936;46.328;11.026;2023-01-29T05:54:34;94945.13;;;-7.76;80.49
39223;BME280;24936;46.328;11.026;2023-01-29T05:56:59;94955.44;;;-7.84;81.16
39223;BME280;24936;46.328;11.026;2023-01-29T05:59:24;94952.19;;;-8.00;81.48
39223;BME280;24936;46.328;11.026;2023-01-29T06:01:50;94955.59;;;-7.96;82.31
39223;BME280;24936;46.328;11.026;2023-01-29T06:04:15;94949.53;;;-7.89;82.13
39223;BME280;24936;46.328;11.026;2023-01-29T06:06:41;94952.03;;;-7.82;81.85
39223;BME280;24936;46.328;11.026;2023-01-29T06:09:06;94961.44;;;-7.88;81.73
39223;BME280;24936;46.328;11.026;2023-01-29T06:11:32;94965.44;;;-7.65;81.44
39223;BME280;24936;46.328;11.026;2023-01-29T06:13:57;94973.41;;;-7.88;80.93
39223;BME280;24936;46.328;11.026;2023-01-29T06:16:22;94968.50;;;-8.10;82.06
39223;BME280;24936;46.328;11.026;2023-01-29T06:18:48;94973.63;;;-8.11;82.66
39223;BME280;24936;46.328;11.026;2023-01-29T06:21:13;94975.84;;;-7.79;82.03
39223;BME280;24936;46.328;11.026;2023-01-29T06:23:39;94978.13;;;-7.57;80.37
39223;BME280;24936;46.328;11.026;2023-01-29T06:26:07;94974.09;;;-7.10;78.72
39223;BME280;24936;46.328;11.026;2023-01-29T06:28:34;94977.22;;;-6.91;77.79
39223;BME280;24936;46.328;11.026;2023-01-29T06:31:04;94979.25;;;-7.13;77.46
39223;BME280;24936;46.328;11.026;2023-01-29T06:33:30;94980.66;;;-7.54;78.84
39223;BME280;24936;46.328;11.026;2023-01-29T06:35:56;94989.34;;;-7.68;79.94
39223;BME280;24936;46.328;11.026;2023-01-29T06:38:22;94997.97;;;-7.79;80.38
39223;BME280;24936;46.328;11.026;2023-01-29T06:40:48;94996.75;;;-7.46;79.36
39223;BME280;24936;46.328;11.026;2023-01-29T06:43:13;94994.56;;;-7.77;79.99
39223;BME280;24936;46.328;11.026;2023-01-29T06:45:46;94998.19;;;-7.95;80.93
39223;BME280;24936;46.328;11.026;2023-01-29T06:48:12;95004.94;;;-7.89;81.57
39223;BME280;24936;46.328;11.026;2023-01-29T06:50:37;95014.22;;;-7.82;81.11
39223;BME280;24936;46.328;11.026;2023-01-29T06:53:02;95019.31;;;-7.82;81.16
39223;BME280;24936;46.328;11.026;2023-01-29T06:55:28;95020.97;;;-7.76;80.98
39223;BME280;24936;46.328;11.026;2023-01-29T06:57:53;95021.00;;;-7.78;81.32
39223;BME280;24936;46.328;11.026;2023-01-29T07:00:19;95021.66;;;-7.60;80.39
39223;BME280;24936;46.328;11.026;2023-01-29T07:02:48;95021.19;;;-7.96;81.24
39223;BME280;24936;46.328;11.026;2023-01-29T07:05:13;95023.44;;;-7.67;80.87
39223;BME280;24936;46.328;11.026;2023-01-29T07:07:39;95021.75;;;-7.70;80.60
39223;BME280;24936;46.328;11.026;2023-01-29T07:10:04;95026.28;;;-7.96;81.65
39223;BME280;24936;46.328;11.026;2023-01-29T07:12:30;95022.88;;;-7.95;81.70
39223;BME280;24936;46.328;11.026;2023-01-29T07:14:56;95029.81;;;-8.07;82.54
39223;BME280;24936;46.328;11.026;2023-01-29T07:17:21;95029.84;;;-8.11;82.55
39223;BME280;24936;46.328;11.026;2023-01-29T07:19:49;95029.78;;;-8.04;83.02
39223;BME280;24936;46.328;11.026;2023-01-29T07:22:15;95030.63;;;-8.05;83.13
39223;BME280;24936;46.328;11.026;2023-01-29T07:24:41;95022.94;;;-8.00;82.77
39223;BME280;24936;46.328;11.026;2023-01-29T07:27:06;95034.88;;;-8.04;83.01
39223;BME280;24936;46.328;11.026;2023-01-29T07:29:32;95034.81;;;-7.97;82.91
39223;BME280;24936;46.328;11.026;2023-01-29T07:31:57;95039.91;;;-7.94;83.48
39223;BME280;24936;46.328;11.026;2023-01-29T07:34:23;95034.75;;;-7.88;83.33
39223;BME280;24936;46.328;11.026;2023-01-29T07:36:48;95033.78;;;-7.79;82.97
39223;BME280;24936;46.328;11.026;2023-01-29T07:39:16;95032.81;;;-7.68;82.98
39223;BME280;24936;46.328;11.026;2023-01-29T07:41:42;95043.72;;;-7.53;82.43
39223;BME280;24936;46.328;11.026;2023-01-29T07:44:07;95044.44;;;-7.40;81.69
39223;BME280;24936;46.328;11.026;2023-01-29T07:46:33;95040.78;;;-7.20;81.13
39223;BME280;24936;46.328;11.026;2023-01-29T07:48:58;95049.59;;;-6.78;79.42
39223;BME280;24936;46.328;11.026;2023-01-29T07:51:24;95044.13;;;-6.53;77.52
39223;BME280;24936;46.328;11.026;2023-01-29T07:53:49;95035.94;;;-6.22;75.58
39223;BME280;24936;46.328;11.026;2023-01-29T07:56:14;95035.56;;;-6.00;74.09
39223;BME280;24936;46.328;11.026;2023-01-29T07:58:43;95046.31;;;-6.31;76.27
39223;BME280;24936;46.328;11.026;2023-01-29T08:01:12;95047.38;;;-6.45;77.87
39223;BME280;24936;46.328;11.026;2023-01-29T08:03:38;95046.41;;;-6.34;78.16
39223;BME280;24936;46.328;11.026;2023-01-29T08:06:03;95044.81;;;-6.45;78.62
39223;BME280;24936;46.328;11.026;2023-01-29T08:08:29;95045.25;;;-6.72;79.53
39223;BME280;24936;46.328;11.026;2023-01-29T08:10:55;95056.31;;;-6.70;80.38
39223;BME280;24936;46.328;11.026;2023-01-29T08:13:20;95050.91;;;-6.50;79.50
39223;BME280;24936;46.328;11.026;2023-01-29T08:15:46;95057.59;;;-6.41;79.20
39223;BME280;24936;46.328;11.026;2023-01-29T08:18:12;95061.47;;;-6.16;78.13
39223;BME280;24936;46.328;11.026;2023-01-29T08:20:37;95056.19;;;-6.06;76.83
39223;BME280;24936;46.328;11.026;2023-01-29T08:23:05;95057.66;;;-5.93;75.50
39223;BME280;24936;46.328;11.026;2023-01-29T08:25:33;95056.75;;;-5.90;74.92
39223;BME280;24936;46.328;11.026;2023-01-29T08:27:59;95046.44;;;-5.89;74.58
39223;BME280;24936;46.328;11.026;2023-01-29T08:30:30;95047.63;;;-5.60;73.73
39223;BME280;24936;46.328;11.026;2023-01-29T08:32:55;95048.69;;;-5.26;73.77
39223;BME280;24936;46.328;11.026;2023-01-29T08:35:21;95046.13;;;-5.25;73.69
39223;BME280;24936;46.328;11.026;2023-01-29T08:37:54;95052.81;;;-5.17;72.24
39223;BME280;24936;46.328;11.026;2023-01-29T08:40:20;95047.09;;;-4.89;70.82
39223;BME280;24936;46.328;11.026;2023-01-29T08:42:45;95046.66;;;-4.68;70.11
39223;BME280;24936;46.328;11.026;2023-01-29T08:45:11;95045.50;;;-4.54;68.97
39223;BME280;24936;46.328;11.026;2023-01-29T08:47:36;95053.72;;;-4.40;68.93
39223;BME280;24936;46.328;11.026;2023-01-29T08:50:02;95050.88;;;-4.27;68.92
39223;BME280;24936;46.328;11.026;2023-01-29T08:52:27;95049.00;;;-4.22;68.73
39223;BME280;24936;46.328;11.026;2023-01-29T08:54:53;95048.00;;;-4.17;68.91
39223;BME280;24936;46.328;11.026;2023-01-29T08:57:18;95051.06;;;-4.01;68.37
39223;BME280;24936;46.328;11.026;2023-01-29T08:59:43;95055.91;;;-3.88;68.68
39223;BME280;24936;46.328;11.026;2023-01-29T09:08:40;95039.44;;;0.73;54.21
39223;BME280;24936;46.328;11.026;2023-01-29T09:14:19;95042.53;;;2.68;48.24
39223;BME280;24936;46.328;11.026;2023-01-29T09:17:31;95033.47;;;3.43;45.86
39223;BME280;24936;46.328;11.026;2023-01-29T09:20:18;95032.63;;;3.26;46.57
39223;BME280;24936;46.328;11.026;2023-01-29T09:22:53;95032.38;;;3.31;45.21
39223;BME280;24936;46.328;11.026;2023-01-29T09:25:21;95028.09;;;4.10;44.08
39223;BME280;24936;46.328;11.026;2023-01-29T09:27:46;95035.53;;;4.47;42.69
39223;BME280;24936;46.328;11.026;2023-01-29T09:30:12;95035.72;;;4.88;42.77
39223;BME280;24936;46.328;11.026;2023-01-29T09:32:37;95025.88;;;4.49;41.74
39223;BME280;24936;46.328;11.026;2023-01-29T09:35:03;95026.97;;;4.89;40.56
39223;BME280;24936;46.328;11.026;2023-01-29T09:37:32;95038.78;;;4.81;40.82
39223;BME280;24936;46.328;11.026;2023-01-29T09:39:57;95026.78;;;5.50;40.31
39223;BME280;24936;46.328;11.026;2023-01-29T09:42:40;95023.19;;;5.80;38.14
39223;BME280;24936;46.328;11.026;2023-01-29T09:45:14;95030.72;;;6.27;39.24
39223;BME280;24936;46.328;11.026;2023-01-29T09:47:41;95018.81;;;5.81;40.39
39223;BME280;24936;46.328;11.026;2023-01-29T09:50:21;95020.22;;;6.14;37.31
39223;BME280;24936;46.328;11.026;2023-01-29T09:53:10;95022.03;;;6.80;37.17
39223;BME280;24936;46.328;11.026;2023-01-29T09:55:49;95027.63;;;5.93;41.14
39223;BME280;24936;46.328;11.026;2023-01-29T09:58:43;95027.56;;;6.22;38.30
39223;BME280;24936;46.328;11.026;2023-01-29T10:02:07;95027.50;;;6.89;37.42
39223;BME280;24936;46.328;11.026;2023-01-29T10:04:44;95025.84;;;7.01;37.37
39223;BME280;24936;46.328;11.026;2023-01-29T10:10:23;95019.34;;;7.07;36.06
39223;BME280;24936;46.328;11.026;2023-01-29T10:23:37;94992.94;;;5.49;39.57
39223;BME280;24936;46.328;11.026;2023-01-29T10:26:09;94995.69;;;6.30;37.50
39223;BME280;24936;46.328;11.026;2023-01-29T10:31:28;94995.97;;;4.99;37.31
39223;BME280;24936;46.328;11.026;2023-01-29T10:36:48;94975.00;;;5.57;37.13
39223;BME280;24936;46.328;11.026;2023-01-29T10:39:18;94968.97;;;5.42;37.64
39223;BME280;24936;46.328;11.026;2023-01-29T10:47:25;94951.25;;;4.17;40.75
39223;BME280;24936;46.328;11.026;2023-01-29T10:50:19;94949.06;;;4.09;39.18
39223;BME280;24936;46.328;11.026;2023-01-29T10:56:09;94933.38;;;4.25;40.19
39223;BME280;24936;46.328;11.026;2023-01-29T10:58:46;94926.47;;;4.69;43.08
39223;BME280;24936;46.328;11.026;2023-01-29T11:01:13;94916.63;;;4.29;38.27
39223;BME280;24936;46.328;11.026;2023-01-29T11:03:39;94912.56;;;4.69;38.69
39223;BME280;24936;46.328;11.026;2023-01-29T11:06:18;94912.31;;;4.59;39.61
39223;BME280;24936;46.328;11.026;2023-01-29T11:08:53;94906.19;;;4.15;39.27
39223;BME280;24936;46.328;11.026;2023-01-29T11:11:40;94892.00;;;4.64;38.91
39223;BME280;24936;46.328;11.026;2023-01-29T11:14:12;94889.44;;;5.48;37.26
39223;BME280;24936;46.328;11.026;2023-01-29T11:16:43;94885.91;;;5.07;38.66
39223;BME280;24936;46.328;11.026;2023-01-29T11:19:11;94881.09;;;4.57;40.14
39223;BME280;24936;46.328;11.026;2023-01-29T11:21:59;94873.03;;;5.86;38.45
39223;BME280;24936;46.328;11.026;2023-01-29T11:24:26;94872.28;;;8.10;36.53
39223;BME280;24936;46.328;11.026;2023-01-29T11:26:54;94866.00;;;8.13;33.16
39223;BME280;24936;46.328;11.026;2023-01-29T11:29:36;94864.97;;;7.18;35.15
39223;BME280;24936;46.328;11.026;2023-01-29T11:32:25;94871.78;;;6.32;37.50
39223;BME280;24936;46.328;11.026;2023-01-29T11:37:39;94866.09;;;7.27;32.64
39223;BME280;24936;46.328;11.026;2023-01-29T11:42:42;94857.13;;;6.55;37.31
39223;BME280;24936;46.328;11.026;2023-01-29T11:45:28;94867.34;;;6.84;36.38
39223;BME280;24936;46.328;11.026;2023-01-29T11:47:56;94865.91;;;6.67;35.01
39223;BME280;24936;46.328;11.026;2023-01-29T11:50:24;94855.88;;;7.48;35.32
39223;BME280;24936;46.328;11.026;2023-01-29T11:52:51;94849.25;;;7.67;36.65
39223;BME280;24936;46.328;11.026;2023-01-29T11:55:29;94848.78;;;7.86;33.29
39223;BME280;24936;46.328;11.026;2023-01-29T12:00:30;94827.78;;;9.13;31.54
39223;BME280;24936;46.328;11.026;2023-01-29T12:03:21;94834.78;;;7.74;33.02
39223;BME280;24936;46.328;11.026;2023-01-29T12:08:38;94826.28;;;8.53;33.17
39223;BME280;24936;46.328;11.026;2023-01-29T12:11:23;94824.28;;;8.10;32.59
39223;BME280;24936;46.328;11.026;2023-01-29T12:13:54;94825.09;;;7.99;33.04
39223;BME280;24936;46.328;11.026;2023-01-29T12:16:25;94821.38;;;8.02;34.75
39223;BME280;24936;46.328;11.026;2023-01-29T12:18:57;94818.81;;;8.13;36.77
39223;BME280;24936;46.328;11.026;2023-01-29T12:21:37;94813.41;;;7.56;34.21
39223;BME280;24936;46.328;11.026;2023-01-29T12:24:39;94810.22;;;8.00;33.78
39223;BME280;24936;46.328;11.026;2023-01-29T12:32:38;94791.41;;;7.70;33.05
39223;BME280;24936;46.328;11.026;2023-01-29T12:40:14;94790.91;;;7.29;32.73
39223;BME280;24936;46.328;11.026;2023-01-29T12:42:43;94785.22;;;8.41;32.11
39223;BME280;24936;46.328;11.026;2023-01-29T12:45:16;94772.09;;;8.98;31.96
39223;BME280;24936;46.328;11.026;2023-01-29T12:47:46;94775.19;;;8.92;32.83
39223;BME280;24936;46.328;11.026;2023-01-29T12:50:26;94779.22;;;8.16;33.23
39223;BME280;24936;46.328;11.026;2023-01-29T12:53:02;94775.09;;;7.67;34.72
39223;BME280;24936;46.328;11.026;2023-01-29T12:55:31;94768.06;;;8.37;35.08
39223;BME280;24936;46.328;11.026;2023-01-29T12:58:02;94761.97;;;8.36;34.57
39223;BME280;24936;46.328;11.026;2023-01-29T13:00:34;94765.97;;;7.48;34.81
39223;BME280;24936;46.328;11.026;2023-01-29T13:03:28;94763.31;;;7.37;36.15
39223;BME280;24936;46.328;11.026;2023-01-29T13:05:58;94756.91;;;7.16;35.06
39223;BME280;24936;46.328;11.026;2023-01-29T13:08:44;94759.38;;;7.31;34.99
39223;BME280;24936;46.328;11.026;2023-01-29T13:11:25;94755.31;;;7.74;34.36
39223;BME280;24936;46.328;11.026;2023-01-29T13:14:00;94753.22;;;7.90;35.88
39223;BME280;24936;46.328;11.026;2023-01-29T13:16:32;94755.94;;;7.30;33.93
39223;BME280;24936;46.328;11.026;2023-01-29T13:19:19;94751.84;;;8.20;33.21
39223;BME280;24936;46.328;11.026;2023-01-29T13:21:46;94741.84;;;8.14;33.34
39223;BME280;24936;46.328;11.026;2023-01-29T13:24:15;94734.56;;;8.29;33.17
39223;BME280;24936;46.328;11.026;2023-01-29T13:26:46;94745.13;;;7.93;36.30
39223;BME280;24936;46.328;11.026;2023-01-29T13:29:24;94740.31;;;7.29;34.47
39223;BME280;24936;46.328;11.026;2023-01-29T13:31:54;94739.50;;;7.04;35.35
39223;BME280;24936;46.328;11.026;2023-01-29T13:36:48;94728.50;;;8.51;33.37
39223;BME280;24936;46.328;11.026;2023-01-29T13:39:28;94726.78;;;8.05;35.15
39223;BME280;24936;46.328;11.026;2023-01-29T13:41:56;94732.63;;;8.08;35.16
39223;BME280;24936;46.328;11.026;2023-01-29T13:46:54;94727.03;;;8.36;35.34
39223;BME280;24936;46.328;11.026;2023-01-29T13:49:42;94727.41;;;7.50;34.82
39223;BME280;24936;46.328;11.026;2023-01-29T13:54:58;94728.59;;;8.04;34.46
39223;BME280;24936;46.328;11.026;2023-01-29T14:08:37;94724.06;;;7.12;34.22
39223;BME280;24936;46.328;11.026;2023-01-29T14:13:37;94722.97;;;6.79;34.87
39223;BME280;24936;46.328;11.026;2023-01-29T14:18:29;94725.75;;;6.52;36.22
39223;BME280;24936;46.328;11.026;2023-01-29T14:21:05;94718.81;;;5.88;35.49
39223;BME280;24936;46.328;11.026;2023-01-29T14:23:42;94717.88;;;5.63;36.17
39223;BME280;24936;46.328;11.026;2023-01-29T14:28:51;94713.22;;;5.15;36.90
39223;BME280;24936;46.328;11.026;2023-01-29T14:32:13;94720.94;;;5.16;37.84
39223;BME280;24936;46.328;11.026;2023-01-29T14:34:44;94723.28;;;4.94;38.09
39223;BME280;24936;46.328;11.026;2023-01-29T14:39:51;94719.66;;;5.09;38.90
39223;BME280;24936;46.328;11.026;2023-01-29T14:44:47;94722.25;;;5.09;40.09
39223;BME280;24936;46.328;11.026;2023-01-29T14:52:34;94718.78;;;4.26;39.14
39223;BME280;24936;46.328;11.026;2023-01-29T14:55:03;94734.81;;;4.06;41.29
39223;BME280;24936;46.328;11.026;2023-01-29T14:57:30;94729.97;;;4.00;42.17
39223;BME280;24936;46.328;11.026;2023-01-29T15:00:16;94721.13;;;3.59;41.30
39223;BME280;24936;46.328;11.026;2023-01-29T15:02:48;94729.63;;;3.32;41.76
39223;BME280;24936;46.328;11.026;2023-01-29T15:05:24;94727.91;;;3.16;41.10
39223;BME280;24936;46.328;11.026;2023-01-29T15:08:05;94738.47;;;2.83;43.06
39223;BME280;24936;46.328;11.026;2023-01-29T15:10:42;94739.41;;;2.50;44.97
39223;BME280;24936;46.328;11.026;2023-01-29T15:15:42;94737.81;;;2.15;47.45
39223;BME280;24936;46.328;11.026;2023-01-29T15:18:38;94733.91;;;1.90;48.21
39223;BME280;24936;46.328;11.026;2023-01-29T15:21:15;94733.28;;;1.69;48.54
39223;BME280;24936;46.328;11.026;2023-01-29T15:23:41;94731.00;;;1.63;48.30
39223;BME280;24936;46.328;11.026;2023-01-29T15:26:17;94736.28;;;1.44;49.61
39223;BME280;24936;46.328;11.026;2023-01-29T15:28:44;94734.56;;;1.27;49.50
39223;BME280;24936;46.328;11.026;2023-01-29T15:31:12;94729.06;;;1.15;49.87
39223;BME280;24936;46.328;11.026;2023-01-29T15:33:43;94719.97;;;0.89;51.33
39223;BME280;24936;46.328;11.026;2023-01-29T15:36:29;94732.84;;;0.73;51.93
39223;BME280;24936;46.328;11.026;2023-01-29T15:41:36;94727.09;;;0.29;54.41
39223;BME280;24936;46.328;11.026;2023-01-29T15:44:01;94732.28;;;0.10;53.66